sensor_id;sensor_type;location;lat;lon;timestamp;P1;durP1;ratioP1;P2;durP2;ratioP2
41512;SDS011;27244;59.940;30.280;2022-08-19T00:01:26;14.65;;;11.57;;
41512;SDS011;27244;59.940;30.280;2022-08-19T00:03:54;15.35;;;12.48;;
41512;SDS011;27244;59.940;30.280;2022-08-19T00:06:21;13.00;;;11.55;;
41512;SDS011;27244;59.940;30.280;2022-08-19T00:08:48;14.23;;;11.80;;
41512;SDS011;27244;59.940;30.280;2022-08-19T00:11:17;13.80;;;11.55;;
41512;SDS011;27244;59.940;30.280;2022-08-19T00:13:45;12.50;;;11.20;;
41512;SDS011;27244;59.940;30.280;2022-08-19T00:16:13;14.00;;;11.23;;
41512;SDS011;27244;59.940;30.280;2022-08-19T00:18:43;17.52;;;12.02;;
41512;SDS011;27244;59.940;30.280;2022-08-19T00:21:10;14.27;;;12.48;;
41512;SDS011;27244;59.940;30.280;2022-08-19T00:23:37;14.00;;;11.15;;
41512;SDS011;27244;59.940;30.280;2022-08-19T00:26:04;16.88;;;12.15;;
41512;SDS011;27244;59.940;30.280;2022-08-19T00:28:33;14.70;;;11.13;;
41512;SDS011;27244;59.940;30.280;2022-08-19T00:31:01;15.05;;;11.77;;
41512;SDS011;27244;59.940;30.280;2022-08-19T00:33:32;12.55;;;10.77;;
41512;SDS011;27244;59.940;30.280;2022-08-19T00:35:59;12.25;;;10.82;;
41512;SDS011;27244;59.940;30.280;2022-08-19T00:38:27;12.27;;;10.93;;
41512;SDS011;27244;59.940;30.280;2022-08-19T00:40:55;14.73;;;12.05;;
41512;SDS011;27244;59.940;30.280;2022-08-19T00:43:23;15.10;;;11.65;;
41512;SDS011;27244;59.940;30.280;2022-08-19T00:45:53;14.52;;;11.60;;
41512;SDS011;27244;59.940;30.280;2022-08-19T00:48:20;17.20;;;12.13;;
41512;SDS011;27244;59.940;30.280;2022-08-19T00:50:51;13.38;;;11.15;;
41512;SDS011;27244;59.940;30.280;2022-08-19T00:53:21;14.98;;;10.43;;
41512;SDS011;27244;59.940;30.280;2022-08-19T00:55:53;13.45;;;11.23;;
41512;SDS011;27244;59.940;30.280;2022-08-19T00:58:24;13.25;;;11.55;;
41512;SDS011;27244;59.940;30.280;2022-08-19T01:00:56;11.70;;;10.45;;
41512;SDS011;27244;59.940;30.280;2022-08-19T01:03:23;13.57;;;10.95;;
41512;SDS011;27244;59.940;30.280;2022-08-19T01:05:50;14.93;;;11.25;;
41512;SDS011;27244;59.940;30.280;2022-08-19T01:08:20;14.65;;;11.07;;
41512;SDS011;27244;59.940;30.280;2022-08-19T01:10:49;13.77;;;10.75;;
41512;SDS011;27244;59.940;30.280;2022-08-19T01:13:19;14.02;;;11.35;;
41512;SDS011;27244;59.940;30.280;2022-08-19T01:15:48;15.48;;;11.52;;
41512;SDS011;27244;59.940;30.280;2022-08-19T01:18:21;16.20;;;11.13;;
41512;SDS011;27244;59.940;30.280;2022-08-19T01:20:51;13.57;;;10.77;;
41512;SDS011;27244;59.940;30.280;2022-08-19T01:23:22;14.77;;;11.00;;
41512;SDS011;27244;59.940;30.280;2022-08-19T01:26:08;15.30;;;11.43;;
41512;SDS011;27244;59.940;30.280;2022-08-19T01:28:36;14.02;;;10.43;;
41512;SDS011;27244;59.940;30.280;2022-08-19T01:31:04;13.07;;;10.75;;
41512;SDS011;27244;59.940;30.280;2022-08-19T01:33:32;14.02;;;10.60;;
41512;SDS011;27244;59.940;30.280;2022-08-19T01:36:03;14.38;;;10.52;;
41512;SDS011;27244;59.940;30.280;2022-08-19T01:38:34;16.83;;;12.20;;
41512;SDS011;27244;59.940;30.280;2022-08-19T01:41:02;13.40;;;10.45;;
41512;SDS011;27244;59.940;30.280;2022-08-19T01:43:29;13.77;;;11.00;;
41512;SDS011;27244;59.940;30.280;2022-08-19T01:45:56;13.50;;;10.85;;
41512;SDS011;27244;59.940;30.280;2022-08-19T01:48:23;12.77;;;10.23;;
41512;SDS011;27244;59.940;30.280;2022-08-19T01:50:50;13.07;;;10.20;;
41512;SDS011;27244;59.940;30.280;2022-08-19T01:53:17;13.68;;;11.10;;
41512;SDS011;27244;59.940;30.280;2022-08-19T01:55:46;14.02;;;10.48;;
41512;SDS011;27244;59.940;30.280;2022-08-19T01:58:14;13.10;;;9.85;;
41512;SDS011;27244;59.940;30.280;2022-08-19T02:00:46;14.10;;;10.70;;
41512;SDS011;27244;59.940;30.280;2022-08-19T02:03:14;13.15;;;10.07;;
41512;SDS011;27244;59.940;30.280;2022-08-19T02:05:41;13.45;;;10.48;;
41512;SDS011;27244;59.940;30.280;2022-08-19T02:08:09;12.05;;;9.40;;
41512;SDS011;27244;59.940;30.280;2022-08-19T02:10:38;13.00;;;10.07;;
41512;SDS011;27244;59.940;30.280;2022-08-19T02:13:08;12.60;;;10.00;;
41512;SDS011;27244;59.940;30.280;2022-08-19T02:15:35;11.38;;;9.70;;
41512;SDS011;27244;59.940;30.280;2022-08-19T02:18:02;12.35;;;9.82;;
41512;SDS011;27244;59.940;30.280;2022-08-19T02:20:30;13.38;;;9.48;;
41512;SDS011;27244;59.940;30.280;2022-08-19T02:22:57;14.00;;;10.30;;
41512;SDS011;27244;59.940;30.280;2022-08-19T02:25:26;13.00;;;9.70;;
41512;SDS011;27244;59.940;30.280;2022-08-19T02:27:54;11.43;;;10.23;;
41512;SDS011;27244;59.940;30.280;2022-08-19T02:30:22;12.48;;;9.82;;
41512;SDS011;27244;59.940;30.280;2022-08-19T02:32:50;14.05;;;9.80;;
41512;SDS011;27244;59.940;30.280;2022-08-19T02:35:17;13.77;;;10.65;;
41512;SDS011;27244;59.940;30.280;2022-08-19T02:37:44;10.35;;;8.98;;
41512;SDS011;27244;59.940;30.280;2022-08-19T02:40:29;11.40;;;10.18;;
41512;SDS011;27244;59.940;30.280;2022-08-19T02:42:59;11.50;;;9.43;;
41512;SDS011;27244;59.940;30.280;2022-08-19T02:45:30;11.77;;;9.63;;
41512;SDS011;27244;59.940;30.280;2022-08-19T02:47:58;11.60;;;9.32;;
41512;SDS011;27244;59.940;30.280;2022-08-19T02:50:25;13.00;;;9.93;;
41512;SDS011;27244;59.940;30.280;2022-08-19T02:52:52;13.80;;;9.88;;
41512;SDS011;27244;59.940;30.280;2022-08-19T02:55:19;12.60;;;9.50;;
41512;SDS011;27244;59.940;30.280;2022-08-19T02:57:47;11.38;;;10.13;;
41512;SDS011;27244;59.940;30.280;2022-08-19T03:00:14;12.50;;;9.68;;
41512;SDS011;27244;59.940;30.280;2022-08-19T03:02:43;11.95;;;9.63;;
41512;SDS011;27244;59.940;30.280;2022-08-19T03:05:11;13.00;;;9.65;;
41512;SDS011;27244;59.940;30.280;2022-08-19T03:07:38;14.82;;;9.90;;
41512;SDS011;27244;59.940;30.280;2022-08-19T03:10:06;11.75;;;10.30;;
41512;SDS011;27244;59.940;30.280;2022-08-19T03:12:35;11.38;;;10.00;;
41512;SDS011;27244;59.940;30.280;2022-08-19T03:15:03;11.65;;;9.63;;
41512;SDS011;27244;59.940;30.280;2022-08-19T03:17:31;11.98;;;9.90;;
41512;SDS011;27244;59.940;30.280;2022-08-19T03:20:00;11.23;;;9.48;;
41512;SDS011;27244;59.940;30.280;2022-08-19T03:22:27;14.27;;;9.50;;
41512;SDS011;27244;59.940;30.280;2022-08-19T03:24:55;10.77;;;9.48;;
41512;SDS011;27244;59.940;30.280;2022-08-19T03:27:22;13.45;;;9.40;;
41512;SDS011;27244;59.940;30.280;2022-08-19T03:29:49;12.25;;;8.93;;
41512;SDS011;27244;59.940;30.280;2022-08-19T03:32:16;13.18;;;9.50;;
41512;SDS011;27244;59.940;30.280;2022-08-19T03:34:44;12.05;;;9.30;;
41512;SDS011;27244;59.940;30.280;2022-08-19T03:37:12;13.32;;;9.45;;
41512;SDS011;27244;59.940;30.280;2022-08-19T03:39:39;11.93;;;9.90;;
41512;SDS011;27244;59.940;30.280;2022-08-19T03:42:08;11.32;;;9.07;;
41512;SDS011;27244;59.940;30.280;2022-08-19T03:44:36;14.18;;;10.65;;
41512;SDS011;27244;59.940;30.280;2022-08-19T03:47:04;15.73;;;10.95;;
41512;SDS011;27244;59.940;30.280;2022-08-19T03:49:31;11.30;;;9.23;;
41512;SDS011;27244;59.940;30.280;2022-08-19T03:52:00;17.17;;;11.15;;
41512;SDS011;27244;59.940;30.280;2022-08-19T03:54:31;16.15;;;11.95;;
41512;SDS011;27244;59.940;30.280;2022-08-19T03:56:58;15.77;;;12.13;;
41512;SDS011;27244;59.940;30.280;2022-08-19T03:59:26;19.17;;;13.32;;
41512;SDS011;27244;59.940;30.280;2022-08-19T04:01:55;18.23;;;12.20;;
41512;SDS011;27244;59.940;30.280;2022-08-19T04:04:24;18.27;;;13.40;;
41512;SDS011;27244;59.940;30.280;2022-08-19T04:06:51;17.48;;;11.93;;
41512;SDS011;27244;59.940;30.280;2022-08-19T04:09:19;15.40;;;11.90;;
41512;SDS011;27244;59.940;30.280;2022-08-19T04:11:48;15.48;;;11.48;;
41512;SDS011;27244;59.940;30.280;2022-08-19T04:14:19;16.65;;;11.95;;
41512;SDS011;27244;59.940;30.280;2022-08-19T04:16:47;13.18;;;11.35;;
41512;SDS011;27244;59.940;30.280;2022-08-19T04:19:15;18.45;;;12.07;;
41512;SDS011;27244;59.940;30.280;2022-08-19T04:21:44;17.35;;;11.45;;
41512;SDS011;27244;59.940;30.280;2022-08-19T04:24:14;18.10;;;11.57;;
41512;SDS011;27244;59.940;30.280;2022-08-19T04:26:42;19.02;;;11.43;;
41512;SDS011;27244;59.940;30.280;2022-08-19T04:29:12;12.98;;;10.48;;
41512;SDS011;27244;59.940;30.280;2022-08-19T04:31:41;12.23;;;10.93;;
41512;SDS011;27244;59.940;30.280;2022-08-19T04:34:11;16.40;;;10.43;;
41512;SDS011;27244;59.940;30.280;2022-08-19T04:36:40;14.50;;;10.30;;
41512;SDS011;27244;59.940;30.280;2022-08-19T04:39:11;13.00;;;10.23;;
41512;SDS011;27244;59.940;30.280;2022-08-19T04:41:42;12.43;;;9.98;;
41512;SDS011;27244;59.940;30.280;2022-08-19T04:44:27;16.13;;;9.75;;
41512;SDS011;27244;59.940;30.280;2022-08-19T04:46:57;14.48;;;10.13;;
41512;SDS011;27244;59.940;30.280;2022-08-19T04:49:24;14.32;;;9.90;;
41512;SDS011;27244;59.940;30.280;2022-08-19T04:51:52;19.40;;;9.93;;
41512;SDS011;27244;59.940;30.280;2022-08-19T04:54:20;12.40;;;9.77;;
41512;SDS011;27244;59.940;30.280;2022-08-19T04:56:50;16.70;;;9.63;;
41512;SDS011;27244;59.940;30.280;2022-08-19T04:59:17;14.98;;;9.85;;
41512;SDS011;27244;59.940;30.280;2022-08-19T05:01:47;14.25;;;9.93;;
41512;SDS011;27244;59.940;30.280;2022-08-19T05:04:15;11.45;;;8.80;;
41512;SDS011;27244;59.940;30.280;2022-08-19T05:06:44;13.70;;;9.25;;
41512;SDS011;27244;59.940;30.280;2022-08-19T05:09:12;11.68;;;9.18;;
41512;SDS011;27244;59.940;30.280;2022-08-19T05:11:40;17.75;;;9.40;;
41512;SDS011;27244;59.940;30.280;2022-08-19T05:14:07;13.68;;;9.52;;
41512;SDS011;27244;59.940;30.280;2022-08-19T05:16:35;10.98;;;9.00;;
41512;SDS011;27244;59.940;30.280;2022-08-19T05:19:03;14.68;;;9.60;;
41512;SDS011;27244;59.940;30.280;2022-08-19T05:21:48;11.18;;;8.70;;
41512;SDS011;27244;59.940;30.280;2022-08-19T05:24:32;16.10;;;9.10;;
41512;SDS011;27244;59.940;30.280;2022-08-19T05:27:00;12.38;;;8.80;;
41512;SDS011;27244;59.940;30.280;2022-08-19T05:29:31;10.83;;;8.73;;
41512;SDS011;27244;59.940;30.280;2022-08-19T05:31:59;12.18;;;9.50;;
41512;SDS011;27244;59.940;30.280;2022-08-19T05:34:29;14.88;;;9.77;;
41512;SDS011;27244;59.940;30.280;2022-08-19T05:36:58;12.60;;;10.18;;
41512;SDS011;27244;59.940;30.280;2022-08-19T05:39:28;13.55;;;9.60;;
41512;SDS011;27244;59.940;30.280;2022-08-19T05:41:58;14.15;;;10.00;;
41512;SDS011;27244;59.940;30.280;2022-08-19T05:44:28;12.27;;;10.23;;
41512;SDS011;27244;59.940;30.280;2022-08-19T05:46:59;14.65;;;11.05;;
41512;SDS011;27244;59.940;30.280;2022-08-19T05:49:30;16.48;;;11.48;;
41512;SDS011;27244;59.940;30.280;2022-08-19T05:51:58;13.52;;;10.88;;
41512;SDS011;27244;59.940;30.280;2022-08-19T05:54:27;15.90;;;11.82;;
41512;SDS011;27244;59.940;30.280;2022-08-19T05:56:55;14.60;;;10.55;;
41512;SDS011;27244;59.940;30.280;2022-08-19T05:59:22;14.60;;;10.82;;
41512;SDS011;27244;59.940;30.280;2022-08-19T06:01:50;15.80;;;11.68;;
41512;SDS011;27244;59.940;30.280;2022-08-19T06:04:19;14.07;;;11.05;;
41512;SDS011;27244;59.940;30.280;2022-08-19T06:06:49;15.55;;;10.57;;
41512;SDS011;27244;59.940;30.280;2022-08-19T06:09:28;17.52;;;10.15;;
41512;SDS011;27244;59.940;30.280;2022-08-19T06:11:57;15.27;;;10.48;;
41512;SDS011;27244;59.940;30.280;2022-08-19T06:14:29;15.70;;;10.63;;
41512;SDS011;27244;59.940;30.280;2022-08-19T06:16:59;14.85;;;10.32;;
41512;SDS011;27244;59.940;30.280;2022-08-19T06:19:28;12.25;;;9.60;;
41512;SDS011;27244;59.940;30.280;2022-08-19T06:21:57;12.75;;;9.05;;
41512;SDS011;27244;59.940;30.280;2022-08-19T06:24:26;13.70;;;9.02;;
41512;SDS011;27244;59.940;30.280;2022-08-19T06:26:55;15.52;;;9.88;;
41512;SDS011;27244;59.940;30.280;2022-08-19T06:29:23;12.68;;;9.20;;
41512;SDS011;27244;59.940;30.280;2022-08-19T06:31:55;16.77;;;9.73;;
41512;SDS011;27244;59.940;30.280;2022-08-19T06:34:25;15.60;;;9.40;;
41512;SDS011;27244;59.940;30.280;2022-08-19T06:36:58;15.93;;;9.65;;
41512;SDS011;27244;59.940;30.280;2022-08-19T06:39:28;13.27;;;9.70;;
41512;SDS011;27244;59.940;30.280;2022-08-19T06:41:56;12.25;;;9.70;;
41512;SDS011;27244;59.940;30.280;2022-08-19T06:44:29;12.98;;;9.70;;
41512;SDS011;27244;59.940;30.280;2022-08-19T06:47:02;12.95;;;9.00;;
41512;SDS011;27244;59.940;30.280;2022-08-19T06:49:30;13.13;;;9.85;;
41512;SDS011;27244;59.940;30.280;2022-08-19T06:51:59;12.70;;;9.52;;
41512;SDS011;27244;59.940;30.280;2022-08-19T06:54:27;13.98;;;10.18;;
41512;SDS011;27244;59.940;30.280;2022-08-19T06:56:54;13.23;;;9.07;;
41512;SDS011;27244;59.940;30.280;2022-08-19T06:59:22;14.63;;;9.23;;
41512;SDS011;27244;59.940;30.280;2022-08-19T07:01:53;11.38;;;8.48;;
41512;SDS011;27244;59.940;30.280;2022-08-19T07:04:22;13.02;;;9.43;;
41512;SDS011;27244;59.940;30.280;2022-08-19T07:06:56;12.25;;;9.23;;
41512;SDS011;27244;59.940;30.280;2022-08-19T07:09:26;12.82;;;9.05;;
41512;SDS011;27244;59.940;30.280;2022-08-19T07:11:54;15.07;;;9.52;;
41512;SDS011;27244;59.940;30.280;2022-08-19T07:14:25;15.55;;;9.23;;
41512;SDS011;27244;59.940;30.280;2022-08-19T07:16:54;13.20;;;8.98;;
41512;SDS011;27244;59.940;30.280;2022-08-19T07:19:24;11.95;;;8.65;;
41512;SDS011;27244;59.940;30.280;2022-08-19T07:21:52;14.80;;;9.27;;
41512;SDS011;27244;59.940;30.280;2022-08-19T07:24:21;11.02;;;8.57;;
41512;SDS011;27244;59.940;30.280;2022-08-19T07:26:51;10.70;;;8.43;;
41512;SDS011;27244;59.940;30.280;2022-08-19T07:29:20;8.95;;;7.97;;
41512;SDS011;27244;59.940;30.280;2022-08-19T07:31:49;14.00;;;8.38;;
41512;SDS011;27244;59.940;30.280;2022-08-19T07:34:16;15.75;;;9.13;;
41512;SDS011;27244;59.940;30.280;2022-08-19T07:36:45;14.30;;;9.45;;
41512;SDS011;27244;59.940;30.280;2022-08-19T07:39:13;12.32;;;8.45;;
41512;SDS011;27244;59.940;30.280;2022-08-19T07:41:41;10.85;;;8.30;;
41512;SDS011;27244;59.940;30.280;2022-08-19T07:44:10;11.07;;;8.38;;
41512;SDS011;27244;59.940;30.280;2022-08-19T07:46:39;14.18;;;8.05;;
41512;SDS011;27244;59.940;30.280;2022-08-19T07:49:08;12.43;;;7.82;;
41512;SDS011;27244;59.940;30.280;2022-08-19T07:51:44;11.68;;;8.20;;
41512;SDS011;27244;59.940;30.280;2022-08-19T07:54:12;13.93;;;8.52;;
41512;SDS011;27244;59.940;30.280;2022-08-19T07:56:39;18.13;;;8.98;;
41512;SDS011;27244;59.940;30.280;2022-08-19T07:59:06;13.10;;;8.15;;
41512;SDS011;27244;59.940;30.280;2022-08-19T08:01:35;13.23;;;8.63;;
41512;SDS011;27244;59.940;30.280;2022-08-19T08:04:05;11.95;;;8.93;;
41512;SDS011;27244;59.940;30.280;2022-08-19T08:06:50;19.92;;;10.07;;
41512;SDS011;27244;59.940;30.280;2022-08-19T08:09:35;14.95;;;9.27;;
41512;SDS011;27244;59.940;30.280;2022-08-19T08:12:06;13.57;;;9.50;;
41512;SDS011;27244;59.940;30.280;2022-08-19T08:14:37;20.15;;;9.93;;
41512;SDS011;27244;59.940;30.280;2022-08-19T08:17:07;15.98;;;8.75;;
41512;SDS011;27244;59.940;30.280;2022-08-19T08:19:35;16.88;;;9.23;;
41512;SDS011;27244;59.940;30.280;2022-08-19T08:22:03;20.73;;;10.30;;
41512;SDS011;27244;59.940;30.280;2022-08-19T08:24:31;13.93;;;8.70;;
41512;SDS011;27244;59.940;30.280;2022-08-19T08:27:00;17.98;;;9.15;;
41512;SDS011;27244;59.940;30.280;2022-08-19T08:29:29;15.70;;;8.63;;
41512;SDS011;27244;59.940;30.280;2022-08-19T08:31:58;16.13;;;9.05;;
41512;SDS011;27244;59.940;30.280;2022-08-19T08:34:26;17.88;;;9.55;;
41512;SDS011;27244;59.940;30.280;2022-08-19T08:36:53;19.75;;;8.52;;
41512;SDS011;27244;59.940;30.280;2022-08-19T08:39:21;17.23;;;9.63;;
41512;SDS011;27244;59.940;30.280;2022-08-19T08:41:53;17.13;;;9.05;;
41512;SDS011;27244;59.940;30.280;2022-08-19T08:44:27;15.15;;;8.50;;
41512;SDS011;27244;59.940;30.280;2022-08-19T08:47:09;16.95;;;9.02;;
41512;SDS011;27244;59.940;30.280;2022-08-19T08:49:43;24.85;;;10.55;;
41512;SDS011;27244;59.940;30.280;2022-08-19T08:52:15;19.65;;;9.68;;
41512;SDS011;27244;59.940;30.280;2022-08-19T08:54:48;20.73;;;9.25;;
41512;SDS011;27244;59.940;30.280;2022-08-19T08:57:19;27.35;;;9.43;;
41512;SDS011;27244;59.940;30.280;2022-08-19T08:59:51;27.15;;;9.68;;
41512;SDS011;27244;59.940;30.280;2022-08-19T09:02:21;32.55;;;9.77;;
41512;SDS011;27244;59.940;30.280;2022-08-19T09:04:49;28.52;;;10.38;;
41512;SDS011;27244;59.940;30.280;2022-08-19T09:07:20;23.40;;;9.23;;
41512;SDS011;27244;59.940;30.280;2022-08-19T09:09:57;22.98;;;9.98;;
41512;SDS011;27244;59.940;30.280;2022-08-19T09:12:36;22.25;;;8.30;;
41512;SDS011;27244;59.940;30.280;2022-08-19T09:15:09;22.30;;;8.75;;
41512;SDS011;27244;59.940;30.280;2022-08-19T09:17:38;27.58;;;10.35;;
41512;SDS011;27244;59.940;30.280;2022-08-19T09:20:13;23.42;;;9.38;;
41512;SDS011;27244;59.940;30.280;2022-08-19T09:22:44;22.05;;;9.38;;
41512;SDS011;27244;59.940;30.280;2022-08-19T09:25:13;24.52;;;9.80;;
41512;SDS011;27244;59.940;30.280;2022-08-19T09:27:42;19.15;;;8.73;;
41512;SDS011;27244;59.940;30.280;2022-08-19T09:30:12;16.13;;;8.35;;
41512;SDS011;27244;59.940;30.280;2022-08-19T09:32:41;13.05;;;8.80;;
41512;SDS011;27244;59.940;30.280;2022-08-19T09:35:11;18.85;;;8.27;;
41512;SDS011;27244;59.940;30.280;2022-08-19T09:37:39;16.20;;;9.45;;
41512;SDS011;27244;59.940;30.280;2022-08-19T09:40:06;18.35;;;9.13;;
41512;SDS011;27244;59.940;30.280;2022-08-19T09:42:34;21.85;;;8.85;;
41512;SDS011;27244;59.940;30.280;2022-08-19T09:45:01;19.75;;;9.00;;
41512;SDS011;27244;59.940;30.280;2022-08-19T09:47:30;19.50;;;9.27;;
41512;SDS011;27244;59.940;30.280;2022-08-19T09:49:58;17.60;;;8.60;;
41512;SDS011;27244;59.940;30.280;2022-08-19T09:52:26;18.40;;;8.35;;
41512;SDS011;27244;59.940;30.280;2022-08-19T09:54:53;15.52;;;8.57;;
41512;SDS011;27244;59.940;30.280;2022-08-19T09:57:20;17.17;;;8.98;;
41512;SDS011;27244;59.940;30.280;2022-08-19T09:59:47;19.42;;;8.73;;
41512;SDS011;27244;59.940;30.280;2022-08-19T10:02:14;14.32;;;8.10;;
41512;SDS011;27244;59.940;30.280;2022-08-19T10:04:41;23.40;;;9.45;;
41512;SDS011;27244;59.940;30.280;2022-08-19T10:07:27;16.65;;;8.82;;
41512;SDS011;27244;59.940;30.280;2022-08-19T10:09:56;20.50;;;8.70;;
41512;SDS011;27244;59.940;30.280;2022-08-19T10:12:23;18.15;;;8.68;;
41512;SDS011;27244;59.940;30.280;2022-08-19T10:14:50;21.30;;;8.10;;
41512;SDS011;27244;59.940;30.280;2022-08-19T10:17:19;14.27;;;8.52;;
41512;SDS011;27244;59.940;30.280;2022-08-19T10:19:46;14.75;;;7.43;;
41512;SDS011;27244;59.940;30.280;2022-08-19T10:22:15;13.32;;;7.45;;
41512;SDS011;27244;59.940;30.280;2022-08-19T10:24:46;12.63;;;8.05;;
41512;SDS011;27244;59.940;30.280;2022-08-19T10:27:14;15.93;;;8.00;;
41512;SDS011;27244;59.940;30.280;2022-08-19T10:29:41;20.63;;;7.43;;
41512;SDS011;27244;59.940;30.280;2022-08-19T10:32:09;13.32;;;7.40;;
41512;SDS011;27244;59.940;30.280;2022-08-19T10:34:37;12.60;;;6.88;;
41512;SDS011;27244;59.940;30.280;2022-08-19T10:37:04;11.88;;;7.43;;
41512;SDS011;27244;59.940;30.280;2022-08-19T10:39:32;11.70;;;7.13;;
41512;SDS011;27244;59.940;30.280;2022-08-19T10:42:05;10.45;;;7.18;;
41512;SDS011;27244;59.940;30.280;2022-08-19T10:44:33;12.25;;;7.22;;
41512;SDS011;27244;59.940;30.280;2022-08-19T10:47:01;12.02;;;7.60;;
41512;SDS011;27244;59.940;30.280;2022-08-19T10:49:29;10.63;;;7.65;;
41512;SDS011;27244;59.940;30.280;2022-08-19T10:51:57;10.68;;;6.97;;
41512;SDS011;27244;59.940;30.280;2022-08-19T10:54:42;13.05;;;7.32;;
41512;SDS011;27244;59.940;30.280;2022-08-19T10:57:31;9.23;;;6.78;;
41512;SDS011;27244;59.940;30.280;2022-08-19T10:59:58;16.90;;;7.10;;
41512;SDS011;27244;59.940;30.280;2022-08-19T11:02:25;8.43;;;6.70;;
41512;SDS011;27244;59.940;30.280;2022-08-19T11:04:52;10.80;;;6.68;;
41512;SDS011;27244;59.940;30.280;2022-08-19T11:07:19;9.68;;;6.75;;
41512;SDS011;27244;59.940;30.280;2022-08-19T11:09:46;9.00;;;6.43;;
41512;SDS011;27244;59.940;30.280;2022-08-19T11:12:13;10.32;;;6.90;;
41512;SDS011;27244;59.940;30.280;2022-08-19T11:14:42;10.32;;;5.85;;
41512;SDS011;27244;59.940;30.280;2022-08-19T11:17:09;8.00;;;6.32;;
41512;SDS011;27244;59.940;30.280;2022-08-19T11:19:39;12.65;;;6.95;;
41512;SDS011;27244;59.940;30.280;2022-08-19T11:22:08;8.65;;;5.85;;
41512;SDS011;27244;59.940;30.280;2022-08-19T11:24:35;9.02;;;5.90;;
41512;SDS011;27244;59.940;30.280;2022-08-19T11:27:03;13.68;;;6.03;;
41512;SDS011;27244;59.940;30.280;2022-08-19T11:29:34;9.10;;;5.78;;
41512;SDS011;27244;59.940;30.280;2022-08-19T11:32:05;10.57;;;6.20;;
41512;SDS011;27244;59.940;30.280;2022-08-19T11:34:34;11.82;;;6.28;;
41512;SDS011;27244;59.940;30.280;2022-08-19T11:37:02;10.98;;;6.47;;
41512;SDS011;27244;59.940;30.280;2022-08-19T11:39:31;8.20;;;5.88;;
41512;SDS011;27244;59.940;30.280;2022-08-19T11:42:00;10.05;;;6.30;;
41512;SDS011;27244;59.940;30.280;2022-08-19T11:44:27;9.05;;;6.75;;
41512;SDS011;27244;59.940;30.280;2022-08-19T11:46:55;14.05;;;6.25;;
41512;SDS011;27244;59.940;30.280;2022-08-19T11:49:26;7.57;;;6.03;;
41512;SDS011;27244;59.940;30.280;2022-08-19T11:51:55;10.02;;;6.22;;
41512;SDS011;27244;59.940;30.280;2022-08-19T11:54:23;10.25;;;6.28;;
41512;SDS011;27244;59.940;30.280;2022-08-19T11:56:50;11.10;;;5.80;;
41512;SDS011;27244;59.940;30.280;2022-08-19T11:59:17;10.80;;;6.40;;
41512;SDS011;27244;59.940;30.280;2022-08-19T12:01:44;13.65;;;6.05;;
41512;SDS011;27244;59.940;30.280;2022-08-19T12:04:11;13.98;;;6.47;;
41512;SDS011;27244;59.940;30.280;2022-08-19T12:06:40;11.20;;;5.70;;
41512;SDS011;27244;59.940;30.280;2022-08-19T12:09:08;9.73;;;5.90;;
41512;SDS011;27244;59.940;30.280;2022-08-19T12:11:36;10.85;;;5.95;;
41512;SDS011;27244;59.940;30.280;2022-08-19T12:14:04;10.35;;;6.65;;
41512;SDS011;27244;59.940;30.280;2022-08-19T12:16:31;11.77;;;6.38;;
41512;SDS011;27244;59.940;30.280;2022-08-19T12:18:59;12.57;;;6.68;;
41512;SDS011;27244;59.940;30.280;2022-08-19T12:21:29;7.68;;;6.15;;
41512;SDS011;27244;59.940;30.280;2022-08-19T12:23:59;8.75;;;6.22;;
41512;SDS011;27244;59.940;30.280;2022-08-19T12:26:28;10.00;;;5.88;;
41512;SDS011;27244;59.940;30.280;2022-08-19T12:28:57;20.98;;;6.18;;
41512;SDS011;27244;59.940;30.280;2022-08-19T12:31:25;11.05;;;6.30;;
41512;SDS011;27244;59.940;30.280;2022-08-19T12:33:53;11.85;;;5.88;;
41512;SDS011;27244;59.940;30.280;2022-08-19T12:36:20;12.25;;;6.43;;
41512;SDS011;27244;59.940;30.280;2022-08-19T12:38:48;15.48;;;6.95;;
41512;SDS011;27244;59.940;30.280;2022-08-19T12:41:17;10.98;;;5.72;;
41512;SDS011;27244;59.940;30.280;2022-08-19T12:43:47;11.25;;;6.40;;
41512;SDS011;27244;59.940;30.280;2022-08-19T12:46:14;11.13;;;6.20;;
41512;SDS011;27244;59.940;30.280;2022-08-19T12:48:41;14.10;;;6.30;;
41512;SDS011;27244;59.940;30.280;2022-08-19T12:51:11;12.50;;;5.75;;
41512;SDS011;27244;59.940;30.280;2022-08-19T12:53:40;12.05;;;5.45;;
41512;SDS011;27244;59.940;30.280;2022-08-19T12:56:08;8.98;;;5.82;;
41512;SDS011;27244;59.940;30.280;2022-08-19T12:58:37;12.48;;;6.20;;
41512;SDS011;27244;59.940;30.280;2022-08-19T13:01:07;10.05;;;6.00;;
41512;SDS011;27244;59.940;30.280;2022-08-19T13:03:35;10.40;;;5.57;;
41512;SDS011;27244;59.940;30.280;2022-08-19T13:06:03;9.52;;;6.00;;
41512;SDS011;27244;59.940;30.280;2022-08-19T13:08:30;10.27;;;6.13;;
41512;SDS011;27244;59.940;30.280;2022-08-19T13:10:57;15.85;;;5.82;;
41512;SDS011;27244;59.940;30.280;2022-08-19T13:13:24;11.18;;;6.28;;
41512;SDS011;27244;59.940;30.280;2022-08-19T13:16:00;10.65;;;6.03;;
41512;SDS011;27244;59.940;30.280;2022-08-19T13:18:28;11.85;;;6.07;;
41512;SDS011;27244;59.940;30.280;2022-08-19T13:20:56;8.80;;;5.78;;
41512;SDS011;27244;59.940;30.280;2022-08-19T13:23:23;10.18;;;5.50;;
41512;SDS011;27244;59.940;30.280;2022-08-19T13:25:57;9.38;;;6.03;;
41512;SDS011;27244;59.940;30.280;2022-08-19T13:28:24;10.82;;;5.70;;
41512;SDS011;27244;59.940;30.280;2022-08-19T13:30:52;10.50;;;5.75;;
41512;SDS011;27244;59.940;30.280;2022-08-19T13:33:37;12.02;;;5.63;;
41512;SDS011;27244;59.940;30.280;2022-08-19T13:36:05;13.13;;;5.88;;
41512;SDS011;27244;59.940;30.280;2022-08-19T13:38:32;11.50;;;5.70;;
41512;SDS011;27244;59.940;30.280;2022-08-19T13:41:03;11.55;;;6.13;;
41512;SDS011;27244;59.940;30.280;2022-08-19T13:43:31;15.85;;;6.70;;
41512;SDS011;27244;59.940;30.280;2022-08-19T13:46:00;11.32;;;6.10;;
41512;SDS011;27244;59.940;30.280;2022-08-19T13:48:38;12.55;;;5.78;;
41512;SDS011;27244;59.940;30.280;2022-08-19T13:51:06;9.95;;;5.57;;
41512;SDS011;27244;59.940;30.280;2022-08-19T13:53:35;11.60;;;6.10;;
41512;SDS011;27244;59.940;30.280;2022-08-19T13:56:04;10.05;;;5.72;;
41512;SDS011;27244;59.940;30.280;2022-08-19T13:58:32;10.55;;;5.70;;
41512;SDS011;27244;59.940;30.280;2022-08-19T14:01:00;12.70;;;6.68;;
41512;SDS011;27244;59.940;30.280;2022-08-19T14:03:28;11.00;;;5.88;;
41512;SDS011;27244;59.940;30.280;2022-08-19T14:05:55;11.23;;;6.00;;
41512;SDS011;27244;59.940;30.280;2022-08-19T14:08:22;18.50;;;6.75;;
41512;SDS011;27244;59.940;30.280;2022-08-19T14:10:49;8.55;;;6.13;;
41512;SDS011;27244;59.940;30.280;2022-08-19T14:13:17;13.20;;;5.80;;
41512;SDS011;27244;59.940;30.280;2022-08-19T14:15:46;16.48;;;5.85;;
41512;SDS011;27244;59.940;30.280;2022-08-19T14:18:15;15.40;;;7.60;;
41512;SDS011;27244;59.940;30.280;2022-08-19T14:20:43;13.43;;;6.53;;
41512;SDS011;27244;59.940;30.280;2022-08-19T14:23:11;13.38;;;6.40;;
41512;SDS011;27244;59.940;30.280;2022-08-19T14:25:38;13.27;;;6.22;;
41512;SDS011;27244;59.940;30.280;2022-08-19T14:28:06;11.35;;;6.10;;
41512;SDS011;27244;59.940;30.280;2022-08-19T14:30:34;14.70;;;6.68;;